sensor_id;sensor_type;location;lat;lon;timestamp;P1;durP1;ratioP1;P2;durP2;ratioP2
56267;SDS011;42175;46.930;9.532;2023-06-05T00:02:00;6.15;;;4.10;;
56267;SDS011;42175;46.930;9.532;2023-06-05T00:04:26;5.60;;;4.85;;
56267;SDS011;42175;46.930;9.532;2023-06-05T00:06:53;7.70;;;4.20;;
56267;SDS011;42175;46.930;9.532;2023-06-05T00:09:19;5.88;;;4.40;;
56267;SDS011;42175;46.930;9.532;2023-06-05T00:11:45;6.53;;;4.72;;
56267;SDS011;42175;46.930;9.532;2023-06-05T00:14:11;7.72;;;4.05;;
56267;SDS011;42175;46.930;9.532;2023-06-05T00:16:37;7.47;;;4.50;;
56267;SDS011;42175;46.930;9.532;2023-06-05T00:19:03;7.30;;;4.70;;
56267;SDS011;42175;46.930;9.532;2023-06-05T00:21:29;6.13;;;4.30;;
56267;SDS011;42175;46.930;9.532;2023-06-05T00:23:55;4.70;;;4.00;;
56267;SDS011;42175;46.930;9.532;2023-06-05T00:26:21;7.40;;;4.05;;
56267;SDS011;42175;46.930;9.532;2023-06-05T00:28:47;5.75;;;4.35;;
56267;SDS011;42175;46.930;9.532;2023-06-05T00:31:13;6.68;;;4.82;;
56267;SDS011;42175;46.930;9.532;2023-06-05T00:33:39;10.32;;;5.05;;
56267;SDS011;42175;46.930;9.532;2023-06-05T00:36:05;5.55;;;4.78;;
56267;SDS011;42175;46.930;9.532;2023-06-05T00:38:31;7.10;;;4.38;;
56267;SDS011;42175;46.930;9.532;2023-06-05T00:40:58;5.30;;;4.30;;
56267;SDS011;42175;46.930;9.532;2023-06-05T00:43:23;7.72;;;4.57;;
56267;SDS011;42175;46.930;9.532;2023-06-05T00:45:50;5.85;;;4.15;;
56267;SDS011;42175;46.930;9.532;2023-06-05T00:48:23;6.97;;;4.47;;
56267;SDS011;42175;46.930;9.532;2023-06-05T00:50:50;6.82;;;3.97;;
56267;SDS011;42175;46.930;9.532;2023-06-05T00:53:16;6.63;;;4.82;;
56267;SDS011;42175;46.930;9.532;2023-06-05T00:55:42;5.32;;;3.83;;
56267;SDS011;42175;46.930;9.532;2023-06-05T00:58:07;5.53;;;4.45;;
56267;SDS011;42175;46.930;9.532;2023-06-05T01:00:34;7.53;;;4.32;;
56267;SDS011;42175;46.930;9.532;2023-06-05T01:03:01;8.00;;;4.50;;
56267;SDS011;42175;46.930;9.532;2023-06-05T01:05:27;6.45;;;4.38;;
56267;SDS011;42175;46.930;9.532;2023-06-05T01:07:53;6.65;;;4.10;;
56267;SDS011;42175;46.930;9.532;2023-06-05T01:10:19;5.95;;;3.70;;
56267;SDS011;42175;46.930;9.532;2023-06-05T01:12:46;6.15;;;4.28;;
56267;SDS011;42175;46.930;9.532;2023-06-05T01:15:17;5.20;;;3.90;;
56267;SDS011;42175;46.930;9.532;2023-06-05T01:17:43;4.43;;;3.72;;
56267;SDS011;42175;46.930;9.532;2023-06-05T01:20:12;5.07;;;4.28;;
56267;SDS011;42175;46.930;9.532;2023-06-05T01:22:38;4.47;;;4.07;;
56267;SDS011;42175;46.930;9.532;2023-06-05T01:25:05;5.93;;;4.28;;
56267;SDS011;42175;46.930;9.532;2023-06-05T01:27:41;5.10;;;3.92;;
56267;SDS011;42175;46.930;9.532;2023-06-05T01:35:09;4.75;;;3.90;;
56267;SDS011;42175;46.930;9.532;2023-06-05T01:37:36;7.65;;;4.28;;
56267;SDS011;42175;46.930;9.532;2023-06-05T01:40:11;5.15;;;3.85;;
56267;SDS011;42175;46.930;9.532;2023-06-05T01:42:39;6.25;;;4.47;;
56267;SDS011;42175;46.930;9.532;2023-06-05T01:45:07;7.63;;;3.85;;
56267;SDS011;42175;46.930;9.532;2023-06-05T01:47:37;6.03;;;4.47;;
56267;SDS011;42175;46.930;9.532;2023-06-05T01:50:05;5.43;;;3.80;;
56267;SDS011;42175;46.930;9.532;2023-06-05T01:52:32;8.20;;;4.35;;
56267;SDS011;42175;46.930;9.532;2023-06-05T01:54:59;5.45;;;4.15;;
56267;SDS011;42175;46.930;9.532;2023-06-05T01:57:28;4.90;;;3.70;;
56267;SDS011;42175;46.930;9.532;2023-06-05T01:59:55;4.68;;;3.63;;
56267;SDS011;42175;46.930;9.532;2023-06-05T02:02:21;6.25;;;4.25;;
56267;SDS011;42175;46.930;9.532;2023-06-05T02:04:47;7.60;;;4.28;;
56267;SDS011;42175;46.930;9.532;2023-06-05T02:07:13;5.45;;;3.88;;
56267;SDS011;42175;46.930;9.532;2023-06-05T02:09:42;6.47;;;3.80;;
56267;SDS011;42175;46.930;9.532;2023-06-05T02:12:08;5.53;;;3.25;;
56267;SDS011;42175;46.930;9.532;2023-06-05T02:14:33;7.20;;;4.15;;
56267;SDS011;42175;46.930;9.532;2023-06-05T02:17:01;4.78;;;3.45;;
56267;SDS011;42175;46.930;9.532;2023-06-05T02:19:31;3.92;;;3.40;;
56267;SDS011;42175;46.930;9.532;2023-06-05T02:21:58;7.47;;;3.83;;
56267;SDS011;42175;46.930;9.532;2023-06-05T02:24:24;6.10;;;4.30;;
56267;SDS011;42175;46.930;9.532;2023-06-05T02:26:52;6.43;;;3.72;;
56267;SDS011;42175;46.930;9.532;2023-06-05T02:29:18;4.63;;;3.55;;
56267;SDS011;42175;46.930;9.532;2023-06-05T02:31:44;5.45;;;4.13;;
56267;SDS011;42175;46.930;9.532;2023-06-05T02:34:10;6.57;;;3.95;;
56267;SDS011;42175;46.930;9.532;2023-06-05T02:36:36;4.03;;;3.40;;
56267;SDS011;42175;46.930;9.532;2023-06-05T02:39:02;7.80;;;4.20;;
56267;SDS011;42175;46.930;9.532;2023-06-05T02:41:29;5.35;;;3.85;;
56267;SDS011;42175;46.930;9.532;2023-06-05T02:43:56;4.82;;;4.32;;
56267;SDS011;42175;46.930;9.532;2023-06-05T02:46:22;5.75;;;3.72;;
56267;SDS011;42175;46.930;9.532;2023-06-05T02:48:49;6.13;;;4.00;;
56267;SDS011;42175;46.930;9.532;2023-06-05T02:51:16;6.45;;;4.00;;
56267;SDS011;42175;46.930;9.532;2023-06-05T02:53:41;6.18;;;4.05;;
56267;SDS011;42175;46.930;9.532;2023-06-05T02:56:07;4.57;;;3.97;;
56267;SDS011;42175;46.930;9.532;2023-06-05T02:58:33;5.03;;;3.83;;
56267;SDS011;42175;46.930;9.532;2023-06-05T03:01:01;5.65;;;3.60;;
56267;SDS011;42175;46.930;9.532;2023-06-05T03:03:31;4.78;;;3.67;;
56267;SDS011;42175;46.930;9.532;2023-06-05T03:05:57;5.47;;;3.83;;
56267;SDS011;42175;46.930;9.532;2023-06-05T03:08:35;5.13;;;3.88;;
56267;SDS011;42175;46.930;9.532;2023-06-05T03:11:04;5.68;;;3.97;;
56267;SDS011;42175;46.930;9.532;2023-06-05T03:13:30;4.72;;;3.40;;
56267;SDS011;42175;46.930;9.532;2023-06-05T03:15:57;6.22;;;3.63;;
56267;SDS011;42175;46.930;9.532;2023-06-05T03:18:29;5.50;;;3.75;;
56267;SDS011;42175;46.930;9.532;2023-06-05T03:20:55;7.65;;;4.03;;
56267;SDS011;42175;46.930;9.532;2023-06-05T03:23:25;5.95;;;3.83;;
56267;SDS011;42175;46.930;9.532;2023-06-05T03:25:53;5.30;;;4.05;;
56267;SDS011;42175;46.930;9.532;2023-06-05T03:28:22;6.45;;;4.05;;
56267;SDS011;42175;46.930;9.532;2023-06-05T03:30:48;5.35;;;3.60;;
56267;SDS011;42175;46.930;9.532;2023-06-05T03:33:15;4.13;;;3.45;;
56267;SDS011;42175;46.930;9.532;2023-06-05T03:35:42;5.03;;;3.72;;
56267;SDS011;42175;46.930;9.532;2023-06-05T03:38:11;4.97;;;3.70;;
56267;SDS011;42175;46.930;9.532;2023-06-05T03:40:37;5.20;;;3.88;;
56267;SDS011;42175;46.930;9.532;2023-06-05T03:43:06;6.82;;;4.22;;
56267;SDS011;42175;46.930;9.532;2023-06-05T03:45:33;4.18;;;3.20;;
56267;SDS011;42175;46.930;9.532;2023-06-05T03:48:00;4.60;;;3.88;;
56267;SDS011;42175;46.930;9.532;2023-06-05T03:50:26;4.60;;;3.83;;
56267;SDS011;42175;46.930;9.532;2023-06-05T03:52:55;4.90;;;3.55;;
56267;SDS011;42175;46.930;9.532;2023-06-05T03:55:28;4.70;;;3.55;;
56267;SDS011;42175;46.930;9.532;2023-06-05T03:58:10;4.85;;;3.92;;
56267;SDS011;42175;46.930;9.532;2023-06-05T04:00:42;6.78;;;3.72;;
56267;SDS011;42175;46.930;9.532;2023-06-05T04:03:09;5.00;;;3.63;;
56267;SDS011;42175;46.930;9.532;2023-06-05T04:05:36;4.00;;;3.20;;
56267;SDS011;42175;46.930;9.532;2023-06-05T04:08:03;3.88;;;3.08;;
56267;SDS011;42175;46.930;9.532;2023-06-05T04:10:32;5.25;;;3.85;;
56267;SDS011;42175;46.930;9.532;2023-06-05T04:12:58;5.63;;;3.60;;
56267;SDS011;42175;46.930;9.532;2023-06-05T04:15:23;4.45;;;3.70;;
56267;SDS011;42175;46.930;9.532;2023-06-05T04:17:50;4.50;;;3.53;;
56267;SDS011;42175;46.930;9.532;2023-06-05T04:20:15;4.97;;;3.97;;
56267;SDS011;42175;46.930;9.532;2023-06-05T04:22:42;5.97;;;4.03;;
56267;SDS011;42175;46.930;9.532;2023-06-05T04:25:08;4.43;;;3.83;;
56267;SDS011;42175;46.930;9.532;2023-06-05T04:27:40;3.90;;;3.20;;
56267;SDS011;42175;46.930;9.532;2023-06-05T04:30:08;4.50;;;3.75;;
56267;SDS011;42175;46.930;9.532;2023-06-05T04:32:35;3.65;;;3.20;;
56267;SDS011;42175;46.930;9.532;2023-06-05T04:35:04;5.00;;;3.75;;
56267;SDS011;42175;46.930;9.532;2023-06-05T04:37:31;5.00;;;3.90;;
56267;SDS011;42175;46.930;9.532;2023-06-05T04:39:58;10.57;;;5.38;;
56267;SDS011;42175;46.930;9.532;2023-06-05T04:42:24;8.82;;;5.15;;
56267;SDS011;42175;46.930;9.532;2023-06-05T04:44:56;7.28;;;5.63;;
56267;SDS011;42175;46.930;9.532;2023-06-05T04:47:23;9.43;;;4.90;;
56267;SDS011;42175;46.930;9.532;2023-06-05T04:49:49;11.55;;;5.95;;
56267;SDS011;42175;46.930;9.532;2023-06-05T04:52:17;9.88;;;5.40;;
56267;SDS011;42175;46.930;9.532;2023-06-05T04:54:43;6.88;;;5.40;;
56267;SDS011;42175;46.930;9.532;2023-06-05T04:57:09;7.97;;;5.78;;
56267;SDS011;42175;46.930;9.532;2023-06-05T04:59:36;10.50;;;5.25;;
56267;SDS011;42175;46.930;9.532;2023-06-05T05:02:02;9.30;;;5.35;;
56267;SDS011;42175;46.930;9.532;2023-06-05T05:04:28;11.35;;;5.00;;
56267;SDS011;42175;46.930;9.532;2023-06-05T05:06:55;7.88;;;4.85;;
56267;SDS011;42175;46.930;9.532;2023-06-05T05:09:26;9.75;;;5.30;;
56267;SDS011;42175;46.930;9.532;2023-06-05T05:11:52;8.05;;;5.07;;
56267;SDS011;42175;46.930;9.532;2023-06-05T05:14:18;7.90;;;5.10;;
56267;SDS011;42175;46.930;9.532;2023-06-05T05:16:44;8.98;;;5.18;;
56267;SDS011;42175;46.930;9.532;2023-06-05T05:19:09;6.55;;;5.35;;
56267;SDS011;42175;46.930;9.532;2023-06-05T05:21:35;10.55;;;6.65;;
56267;SDS011;42175;46.930;9.532;2023-06-05T05:24:01;7.40;;;4.85;;
56267;SDS011;42175;46.930;9.532;2023-06-05T05:26:27;11.05;;;5.88;;
56267;SDS011;42175;46.930;9.532;2023-06-05T05:28:53;9.90;;;5.22;;
56267;SDS011;42175;46.930;9.532;2023-06-05T05:31:19;7.47;;;5.45;;
56267;SDS011;42175;46.930;9.532;2023-06-05T05:33:44;13.70;;;5.68;;
56267;SDS011;42175;46.930;9.532;2023-06-05T05:36:10;11.15;;;6.00;;
56267;SDS011;42175;46.930;9.532;2023-06-05T05:38:36;7.20;;;5.05;;
56267;SDS011;42175;46.930;9.532;2023-06-05T05:41:01;9.00;;;5.80;;
56267;SDS011;42175;46.930;9.532;2023-06-05T05:43:27;8.18;;;5.30;;
56267;SDS011;42175;46.930;9.532;2023-06-05T05:45:53;6.38;;;5.45;;
56267;SDS011;42175;46.930;9.532;2023-06-05T05:48:18;6.88;;;4.95;;
56267;SDS011;42175;46.930;9.532;2023-06-05T05:50:44;14.95;;;5.80;;
56267;SDS011;42175;46.930;9.532;2023-06-05T05:53:10;11.98;;;5.25;;
56267;SDS011;42175;46.930;9.532;2023-06-05T05:55:36;9.02;;;5.18;;
56267;SDS011;42175;46.930;9.532;2023-06-05T05:58:01;19.67;;;6.47;;
56267;SDS011;42175;46.930;9.532;2023-06-05T06:00:27;9.23;;;5.35;;
56267;SDS011;42175;46.930;9.532;2023-06-05T06:02:53;12.95;;;5.35;;
56267;SDS011;42175;46.930;9.532;2023-06-05T06:05:18;13.40;;;6.18;;
56267;SDS011;42175;46.930;9.532;2023-06-05T06:07:45;9.00;;;5.50;;
56267;SDS011;42175;46.930;9.532;2023-06-05T06:10:11;11.95;;;5.78;;
56267;SDS011;42175;46.930;9.532;2023-06-05T06:12:37;8.75;;;5.78;;
56267;SDS011;42175;46.930;9.532;2023-06-05T06:15:04;10.55;;;5.68;;
56267;SDS011;42175;46.930;9.532;2023-06-05T06:17:30;9.80;;;5.55;;
56267;SDS011;42175;46.930;9.532;2023-06-05T06:19:56;12.25;;;5.18;;
56267;SDS011;42175;46.930;9.532;2023-06-05T06:22:22;8.65;;;5.03;;
56267;SDS011;42175;46.930;9.532;2023-06-05T06:24:48;10.52;;;5.80;;
56267;SDS011;42175;46.930;9.532;2023-06-05T06:27:15;11.85;;;6.13;;
56267;SDS011;42175;46.930;9.532;2023-06-05T06:29:49;7.97;;;5.43;;
56267;SDS011;42175;46.930;9.532;2023-06-05T06:32:19;8.18;;;5.35;;
56267;SDS011;42175;46.930;9.532;2023-06-05T06:34:45;10.20;;;4.85;;
56267;SDS011;42175;46.930;9.532;2023-06-05T06:37:14;14.05;;;5.35;;
56267;SDS011;42175;46.930;9.532;2023-06-05T06:39:43;9.15;;;5.45;;
56267;SDS011;42175;46.930;9.532;2023-06-05T06:42:12;8.02;;;4.72;;
56267;SDS011;42175;46.930;9.532;2023-06-05T06:44:38;8.85;;;5.40;;
56267;SDS011;42175;46.930;9.532;2023-06-05T06:47:04;6.82;;;5.45;;
56267;SDS011;42175;46.930;9.532;2023-06-05T06:49:30;10.63;;;5.75;;
56267;SDS011;42175;46.930;9.532;2023-06-05T06:51:56;10.55;;;5.25;;
56267;SDS011;42175;46.930;9.532;2023-06-05T06:54:22;10.43;;;5.70;;
56267;SDS011;42175;46.930;9.532;2023-06-05T06:56:50;11.15;;;5.43;;
56267;SDS011;42175;46.930;9.532;2023-06-05T06:59:16;9.13;;;5.05;;
56267;SDS011;42175;46.930;9.532;2023-06-05T07:01:42;8.00;;;5.68;;
56267;SDS011;42175;46.930;9.532;2023-06-05T07:04:15;17.17;;;6.13;;
56267;SDS011;42175;46.930;9.532;2023-06-05T07:06:46;12.18;;;4.95;;
56267;SDS011;42175;46.930;9.532;2023-06-05T07:09:13;7.22;;;4.95;;
56267;SDS011;42175;46.930;9.532;2023-06-05T07:11:39;10.20;;;5.38;;
56267;SDS011;42175;46.930;9.532;2023-06-05T07:14:05;12.27;;;6.00;;
56267;SDS011;42175;46.930;9.532;2023-06-05T07:16:32;10.38;;;5.43;;
56267;SDS011;42175;46.930;9.532;2023-06-05T07:18:58;9.77;;;5.40;;
56267;SDS011;42175;46.930;9.532;2023-06-05T07:21:24;14.65;;;5.20;;
56267;SDS011;42175;46.930;9.532;2023-06-05T07:23:50;11.23;;;5.25;;
56267;SDS011;42175;46.930;9.532;2023-06-05T07:26:19;12.13;;;5.90;;
56267;SDS011;42175;46.930;9.532;2023-06-05T07:28:46;9.98;;;5.57;;
56267;SDS011;42175;46.930;9.532;2023-06-05T07:31:13;12.90;;;5.43;;
56267;SDS011;42175;46.930;9.532;2023-06-05T07:33:39;13.85;;;5.68;;
56267;SDS011;42175;46.930;9.532;2023-06-05T07:36:06;11.90;;;5.15;;
56267;SDS011;42175;46.930;9.532;2023-06-05T07:38:33;10.45;;;5.72;;
56267;SDS011;42175;46.930;9.532;2023-06-05T07:40:58;12.93;;;5.90;;
56267;SDS011;42175;46.930;9.532;2023-06-05T07:43:26;15.20;;;6.30;;
56267;SDS011;42175;46.930;9.532;2023-06-05T07:45:52;16.52;;;6.00;;
56267;SDS011;42175;46.930;9.532;2023-06-05T07:48:18;14.77;;;5.63;;
56267;SDS011;42175;46.930;9.532;2023-06-05T07:50:44;11.93;;;5.63;;
56267;SDS011;42175;46.930;9.532;2023-06-05T07:53:10;16.40;;;6.20;;
56267;SDS011;42175;46.930;9.532;2023-06-05T07:55:36;11.10;;;5.95;;
56267;SDS011;42175;46.930;9.532;2023-06-05T07:58:02;8.65;;;5.00;;
56267;SDS011;42175;46.930;9.532;2023-06-05T08:00:27;11.07;;;5.75;;
56267;SDS011;42175;46.930;9.532;2023-06-05T08:02:53;13.55;;;5.97;;
56267;SDS011;42175;46.930;9.532;2023-06-05T08:05:19;12.80;;;6.40;;
56267;SDS011;42175;46.930;9.532;2023-06-05T08:07:45;15.30;;;6.57;;
56267;SDS011;42175;46.930;9.532;2023-06-05T08:10:12;11.65;;;5.25;;
56267;SDS011;42175;46.930;9.532;2023-06-05T08:12:38;10.43;;;6.20;;
56267;SDS011;42175;46.930;9.532;2023-06-05T08:15:04;11.30;;;5.72;;
56267;SDS011;42175;46.930;9.532;2023-06-05T08:17:31;15.80;;;6.00;;
56267;SDS011;42175;46.930;9.532;2023-06-05T08:19:57;12.68;;;5.97;;
56267;SDS011;42175;46.930;9.532;2023-06-05T08:22:23;18.02;;;6.25;;
56267;SDS011;42175;46.930;9.532;2023-06-05T08:24:48;11.75;;;6.25;;
56267;SDS011;42175;46.930;9.532;2023-06-05T08:27:16;9.07;;;5.82;;
56267;SDS011;42175;46.930;9.532;2023-06-05T08:29:42;11.43;;;5.97;;
56267;SDS011;42175;46.930;9.532;2023-06-05T08:32:08;13.40;;;5.30;;
56267;SDS011;42175;46.930;9.532;2023-06-05T08:34:34;8.85;;;5.35;;
56267;SDS011;42175;46.930;9.532;2023-06-05T08:37:00;9.02;;;5.38;;
56267;SDS011;42175;46.930;9.532;2023-06-05T08:39:26;13.15;;;6.35;;
56267;SDS011;42175;46.930;9.532;2023-06-05T08:41:56;11.88;;;6.20;;
56267;SDS011;42175;46.930;9.532;2023-06-05T08:44:28;10.80;;;6.03;;
56267;SDS011;42175;46.930;9.532;2023-06-05T08:46:59;11.25;;;5.35;;
56267;SDS011;42175;46.930;9.532;2023-06-05T08:49:27;10.88;;;5.90;;
56267;SDS011;42175;46.930;9.532;2023-06-05T08:51:56;10.27;;;5.60;;
56267;SDS011;42175;46.930;9.532;2023-06-05T08:54:26;9.90;;;5.30;;
56267;SDS011;42175;46.930;9.532;2023-06-05T08:56:52;7.72;;;5.20;;
56267;SDS011;42175;46.930;9.532;2023-06-05T08:59:18;9.07;;;5.38;;
56267;SDS011;42175;46.930;9.532;2023-06-05T09:01:48;9.13;;;5.15;;
56267;SDS011;42175;46.930;9.532;2023-06-05T09:04:14;7.82;;;5.05;;
56267;SDS011;42175;46.930;9.532;2023-06-05T09:06:44;8.05;;;5.28;;
56267;SDS011;42175;46.930;9.532;2023-06-05T09:09:13;11.00;;;4.68;;
56267;SDS011;42175;46.930;9.532;2023-06-05T09:11:40;10.50;;;5.78;;
56267;SDS011;42175;46.930;9.532;2023-06-05T09:14:05;9.35;;;5.70;;
56267;SDS011;42175;46.930;9.532;2023-06-05T09:16:38;17.73;;;7.68;;
56267;SDS011;42175;46.930;9.532;2023-06-05T09:19:07;11.15;;;6.53;;
56267;SDS011;42175;46.930;9.532;2023-06-05T09:21:34;12.77;;;5.60;;
56267;SDS011;42175;46.930;9.532;2023-06-05T09:24:16;9.90;;;5.43;;
56267;SDS011;42175;46.930;9.532;2023-06-05T09:29:32;6.93;;;4.93;;
56267;SDS011;42175;46.930;9.532;2023-06-05T09:32:07;12.57;;;6.10;;
56267;SDS011;42175;46.930;9.532;2023-06-05T09:34:33;27.00;;;6.35;;
56267;SDS011;42175;46.930;9.532;2023-06-05T09:37:01;9.88;;;5.30;;
56267;SDS011;42175;46.930;9.532;2023-06-05T09:39:29;7.68;;;5.32;;
56267;SDS011;42175;46.930;9.532;2023-06-05T09:41:56;8.98;;;5.63;;
56267;SDS011;42175;46.930;9.532;2023-06-05T09:44:23;9.90;;;6.07;;
56267;SDS011;42175;46.930;9.532;2023-06-05T09:46:54;7.38;;;5.70;;
56267;SDS011;42175;46.930;9.532;2023-06-05T09:49:53;10.63;;;6.03;;
56267;SDS011;42175;46.930;9.532;2023-06-05T09:52:18;19.85;;;6.43;;
56267;SDS011;42175;46.930;9.532;2023-06-05T09:54:44;9.95;;;5.85;;
56267;SDS011;42175;46.930;9.532;2023-06-05T09:57:12;9.65;;;6.03;;
56267;SDS011;42175;46.930;9.532;2023-06-05T09:59:52;8.98;;;5.70;;
56267;SDS011;42175;46.930;9.532;2023-06-05T10:02:20;12.27;;;6.00;;
56267;SDS011;42175;46.930;9.532;2023-06-05T10:04:49;10.20;;;6.70;;
56267;SDS011;42175;46.930;9.532;2023-06-05T10:07:29;8.48;;;6.43;;
56267;SDS011;42175;46.930;9.532;2023-06-05T10:09:56;8.43;;;6.18;;
56267;SDS011;42175;46.930;9.532;2023-06-05T10:12:23;14.77;;;6.93;;
56267;SDS011;42175;46.930;9.532;2023-06-05T10:14:52;11.90;;;6.88;;
56267;SDS011;42175;46.930;9.532;2023-06-05T10:17:20;10.80;;;6.95;;
56267;SDS011;42175;46.930;9.532;2023-06-05T10:19:47;13.35;;;7.80;;
56267;SDS011;42175;46.930;9.532;2023-06-05T10:22:12;11.05;;;6.43;;
56267;SDS011;42175;46.930;9.532;2023-06-05T10:24:41;8.48;;;6.80;;
56267;SDS011;42175;46.930;9.532;2023-06-05T10:37:41;11.40;;;6.45;;
56267;SDS011;42175;46.930;9.532;2023-06-05T10:40:10;11.98;;;6.57;;
56267;SDS011;42175;46.930;9.532;2023-06-05T10:42:36;10.75;;;6.47;;
56267;SDS011;42175;46.930;9.532;2023-06-05T10:45:02;9.68;;;6.50;;
56267;SDS011;42175;46.930;9.532;2023-06-05T10:50:18;14.73;;;6.70;;
56267;SDS011;42175;46.930;9.532;2023-06-05T10:52:46;9.23;;;6.65;;
56267;SDS011;42175;46.930;9.532;2023-06-05T10:55:15;9.95;;;6.80;;
56267;SDS011;42175;46.930;9.532;2023-06-05T11:00:26;9.43;;;6.63;;
56267;SDS011;42175;46.930;9.532;2023-06-05T11:02:58;12.98;;;6.88;;
56267;SDS011;42175;46.930;9.532;2023-06-05T11:05:24;13.02;;;7.03;;
56267;SDS011;42175;46.930;9.532;2023-06-05T11:08:13;13.50;;;7.13;;
56267;SDS011;42175;46.930;9.532;2023-06-05T11:16:29;12.05;;;6.30;;
56267;SDS011;42175;46.930;9.532;2023-06-05T11:24:28;10.52;;;7.75;;
56267;SDS011;42175;46.930;9.532;2023-06-05T11:26:53;15.23;;;7.65;;
56267;SDS011;42175;46.930;9.532;2023-06-05T11:29:19;11.18;;;6.32;;
56267;SDS011;42175;46.930;9.532;2023-06-05T11:31:47;9.70;;;7.10;;
56267;SDS011;42175;46.930;9.532;2023-06-05T11:34:13;12.13;;;7.05;;
56267;SDS011;42175;46.930;9.532;2023-06-05T11:36:40;11.93;;;6.88;;
56267;SDS011;42175;46.930;9.532;2023-06-05T11:39:06;9.85;;;6.35;;
56267;SDS011;42175;46.930;9.532;2023-06-05T11:41:33;9.55;;;6.80;;
56267;SDS011;42175;46.930;9.532;2023-06-05T11:43:58;11.43;;;6.97;;
56267;SDS011;42175;46.930;9.532;2023-06-05T11:46:37;13.57;;;6.88;;
56267;SDS011;42175;46.930;9.532;2023-06-05T11:49:05;12.88;;;6.57;;
56267;SDS011;42175;46.930;9.532;2023-06-05T11:51:34;10.98;;;6.95;;
56267;SDS011;42175;46.930;9.532;2023-06-05T11:54:00;8.90;;;6.18;;
56267;SDS011;42175;46.930;9.532;2023-06-05T11:56:32;9.30;;;5.82;;
56267;SDS011;42175;46.930;9.532;2023-06-05T11:58:58;10.13;;;6.15;;
56267;SDS011;42175;46.930;9.532;2023-06-05T12:01:24;10.73;;;6.53;;
56267;SDS011;42175;46.930;9.532;2023-06-05T12:04:03;10.60;;;5.95;;
56267;SDS011;42175;46.930;9.532;2023-06-05T12:06:30;12.25;;;6.40;;
56267;SDS011;42175;46.930;9.532;2023-06-05T12:09:07;7.03;;;5.72;;
56267;SDS011;42175;46.930;9.532;2023-06-05T12:11:37;9.80;;;6.75;;
56267;SDS011;42175;46.930;9.532;2023-06-05T12:14:03;10.10;;;6.18;;
56267;SDS011;42175;46.930;9.532;2023-06-05T12:16:33;8.32;;;6.13;;
56267;SDS011;42175;46.930;9.532;2023-06-05T12:19:03;9.82;;;5.45;;
56267;SDS011;42175;46.930;9.532;2023-06-05T12:21:39;11.30;;;5.80;;
56267;SDS011;42175;46.930;9.532;2023-06-05T12:24:05;11.15;;;5.85;;
56267;SDS011;42175;46.930;9.532;2023-06-05T12:29:33;13.20;;;6.70;;
56267;SDS011;42175;46.930;9.532;2023-06-05T12:32:01;14.05;;;7.00;;
56267;SDS011;42175;46.930;9.532;2023-06-05T12:37:24;10.18;;;6.25;;
56267;SDS011;42175;46.930;9.532;2023-06-05T12:39:56;8.63;;;6.20;;
56267;SDS011;42175;46.930;9.532;2023-06-05T12:42:23;10.93;;;6.40;;
56267;SDS011;42175;46.930;9.532;2023-06-05T12:44:50;11.10;;;6.57;;
56267;SDS011;42175;46.930;9.532;2023-06-05T12:47:16;11.57;;;7.50;;
56267;SDS011;42175;46.930;9.532;2023-06-05T12:49:42;8.88;;;6.07;;
56267;SDS011;42175;46.930;9.532;2023-06-05T12:52:08;8.18;;;6.00;;
56267;SDS011;42175;46.930;9.532;2023-06-05T12:54:34;10.20;;;6.25;;
56267;SDS011;42175;46.930;9.532;2023-06-05T12:57:02;11.00;;;6.35;;
56267;SDS011;42175;46.930;9.532;2023-06-05T12:59:31;11.20;;;6.75;;
56267;SDS011;42175;46.930;9.532;2023-06-05T13:01:57;11.70;;;6.13;;
56267;SDS011;42175;46.930;9.532;2023-06-05T13:04:23;12.10;;;6.07;;
56267;SDS011;42175;46.930;9.532;2023-06-05T13:06:49;10.88;;;6.30;;
56267;SDS011;42175;46.930;9.532;2023-06-05T13:09:16;10.27;;;6.50;;
56267;SDS011;42175;46.930;9.532;2023-06-05T13:11:42;11.32;;;6.13;;
56267;SDS011;42175;46.930;9.532;2023-06-05T13:14:07;7.60;;;5.82;;
56267;SDS011;42175;46.930;9.532;2023-06-05T13:16:33;9.30;;;6.10;;
56267;SDS011;42175;46.930;9.532;2023-06-05T13:18:59;7.68;;;6.22;;
56267;SDS011;42175;46.930;9.532;2023-06-05T13:21:24;8.55;;;6.93;;
56267;SDS011;42175;46.930;9.532;2023-06-05T13:23:51;9.20;;;6.28;;
56267;SDS011;42175;46.930;9.532;2023-06-05T13:26:17;9.60;;;6.63;;
56267;SDS011;42175;46.930;9.532;2023-06-05T13:28:43;10.27;;;6.63;;
56267;SDS011;42175;46.930;9.532;2023-06-05T13:31:10;7.82;;;6.35;;
56267;SDS011;42175;46.930;9.532;2023-06-05T13:33:36;10.32;;;6.85;;
56267;SDS011;42175;46.930;9.532;2023-06-05T13:36:02;12.75;;;6.35;;
56267;SDS011;42175;46.930;9.532;2023-06-05T13:38:27;13.93;;;7.75;;
56267;SDS011;42175;46.930;9.532;2023-06-05T13:40:53;11.82;;;6.70;;
56267;SDS011;42175;46.930;9.532;2023-06-05T13:43:19;11.43;;;7.60;;
56267;SDS011;42175;46.930;9.532;2023-06-05T13:45:45;10.35;;;6.97;;
56267;SDS011;42175;46.930;9.532;2023-06-05T13:48:10;14.52;;;7.05;;
56267;SDS011;42175;46.930;9.532;2023-06-05T13:50:36;8.80;;;6.20;;
56267;SDS011;42175;46.930;9.532;2023-06-05T13:53:02;13.77;;;6.47;;
56267;SDS011;42175;46.930;9.532;2023-06-05T13:55:28;12.00;;;6.97;;
56267;SDS011;42175;46.930;9.532;2023-06-05T13:57:53;8.43;;;6.50;;
56267;SDS011;42175;46.930;9.532;2023-06-05T14:00:21;14.90;;;6.68;;
56267;SDS011;42175;46.930;9.532;2023-06-05T14:02:48;13.25;;;6.90;;
56267;SDS011;42175;46.930;9.532;2023-06-05T14:05:13;12.25;;;6.78;;
56267;SDS011;42175;46.930;9.532;2023-06-05T14:07:39;10.43;;;6.82;;
56267;SDS011;42175;46.930;9.532;2023-06-05T14:10:05;15.63;;;7.43;;
56267;SDS011;42175;46.930;9.532;2023-06-05T14:12:31;9.23;;;6.72;;
56267;SDS011;42175;46.930;9.532;2023-06-05T14:14:57;10.30;;;7.38;;
56267;SDS011;42175;46.930;9.532;2023-06-05T14:17:23;11.88;;;6.82;;
56267;SDS011;42175;46.930;9.532;2023-06-05T14:19:48;9.77;;;6.95;;
56267;SDS011;42175;46.930;9.532;2023-06-05T14:22:14;8.63;;;6.25;;
56267;SDS011;42175;46.930;9.532;2023-06-05T14:24:40;10.65;;;6.88;;
56267;SDS011;42175;46.930;9.532;2023-06-05T14:27:05;8.07;;;7.15;;
56267;SDS011;42175;46.930;9.532;2023-06-05T14:29:32;11.07;;;7.20;;
56267;SDS011;42175;46.930;9.532;2023-06-05T14:32:00;8.98;;;6.78;;
56267;SDS011;42175;46.930;9.532;2023-06-05T14:34:26;10.18;;;6.80;;
56267;SDS011;42175;46.930;9.532;2023-06-05T14:36:52;11.32;;;7.72;;
56267;SDS011;42175;46.930;9.532;2023-06-05T14:39:18;9.60;;;7.38;;
56267;SDS011;42175;46.930;9.532;2023-06-05T14:41:45;18.13;;;7.60;;
56267;SDS011;42175;46.930;9.532;2023-06-05T14:44:11;12.27;;;7.28;;
56267;SDS011;42175;46.930;9.532;2023-06-05T14:46:37;11.35;;;7.28;;
56267;SDS011;42175;46.930;9.532;2023-06-05T14:49:02;10.15;;;7.28;;
56267;SDS011;42175;46.930;9.532;2023-06-05T14:51:28;13.07;;;7.80;;
56267;SDS011;42175;46.930;9.532;2023-06-05T14:53:55;17.05;;;7.82;;
56267;SDS011;42175;46.930;9.532;2023-06-05T14:56:21;15.05;;;7.45;;
56267;SDS011;42175;46.930;9.532;2023-06-05T14:58:47;13.93;;;6.85;;
56267;SDS011;42175;46.930;9.532;2023-06-05T15:01:13;9.48;;;6.97;;
56267;SDS011;42175;46.930;9.532;2023-06-05T15:03:39;12.85;;;7.90;;
56267;SDS011;42175;46.930;9.532;2023-06-05T15:06:05;12.73;;;7.43;;
56267;SDS011;42175;46.930;9.532;2023-06-05T15:08:31;15.90;;;6.90;;
56267;SDS011;42175;46.930;9.532;2023-06-05T15:10:56;20.05;;;7.28;;
56267;SDS011;42175;46.930;9.532;2023-06-05T15:13:22;26.25;;;7.28;;
56267;SDS011;42175;46.930;9.532;2023-06-05T15:15:49;16.45;;;6.95;;
56267;SDS011;42175;46.930;9.532;2023-06-05T15:18:15;18.10;;;7.60;;
56267;SDS011;42175;46.930;9.532;2023-06-05T15:20:41;15.13;;;7.18;;
56267;SDS011;42175;46.930;9.532;2023-06-05T15:23:06;13.63;;;6.93;;
56267;SDS011;42175;46.930;9.532;2023-06-05T15:25:32;15.68;;;7.28;;